Time;durP1;ratioP1;P1;durP2;ratioP2;P2;SDS_P1;SDS_P2;PMS_P1;PMS_P2;Temp;Humidity;BMP_temperature;BMP_pressure;BME280_temperature;BME280_humidity;BME280_pressure;Samples;Min_cycle;Max_cycle;Signal;HPM_P1;HPM_P2
2023/09/29 00:00:31;;;;;;;6.00;4.50;;;22.70;60.00;;;;;;5074958;28;20452;-65
2023/09/29 00:02:57;;;;;;;4.60;4.20;;;22.70;59.50;;;;;;5075224;28;20432;-65
2023/09/29 00:05:23;;;;;;;6.40;5.03;;;22.70;59.50;;;;;;5075668;28;20431;-65
2023/09/29 00:07:51;;;;;;;6.83;3.87;;;22.70;60.10;;;;;;5074938;28;20441;-65
2023/09/29 00:10:17;;;;;;;6.30;5.57;;;22.70;59.60;;;;;;5075278;28;20537;-67
2023/09/29 00:12:44;;;;;;;4.70;4.20;;;22.70;59.60;;;;;;5074838;28;20436;-65
2023/09/29 00:15:10;;;;;;;7.30;3.80;;;22.70;59.60;;;;;;5074782;28;20420;-66
2023/09/29 00:17:37;;;;;;;7.60;4.40;;;22.70;59.60;;;;;;5075591;28;20846;-66
2023/09/29 00:20:18;;;;;;;5.57;4.30;;;22.70;59.60;;;;;;5074814;28;20460;-67
2023/09/29 00:22:43;;;;;;;4.43;3.70;;;22.70;59.60;;;;;;5074930;28;20440;-67
2023/09/29 00:25:09;;;;;;;4.67;4.27;;;22.70;59.60;;;;;;5075240;28;20908;-66
2023/09/29 00:27:35;;;;;;;5.07;4.30;;;22.70;59.60;;;;;;5075143;28;20171;-66
2023/09/29 00:30:01;;;;;;;7.03;5.23;;;22.70;59.60;;;;;;5074969;28;20272;-66
2023/09/29 00:32:26;;;;;;;4.60;4.20;;;22.70;59.60;;;;;;5074921;28;20169;-67
2023/09/29 00:34:52;;;;;;;6.57;4.47;;;22.70;59.60;;;;;;5074886;28;20178;-66
2023/09/29 00:37:17;;;;;;;5.27;4.27;;;22.70;59.60;;;;;;5074971;28;20642;-67
2023/09/29 00:39:43;;;;;;;5.07;4.10;;;22.60;60.10;;;;;;5074814;28;20208;-67
2023/09/29 00:42:09;;;;;;;5.93;4.20;;;22.70;59.60;;;;;;5074813;28;20167;-67
2023/09/29 00:44:35;;;;;;;5.00;4.40;;;22.70;59.60;;;;;;5074158;28;20409;-67
2023/09/29 00:47:01;;;;;;;4.83;4.33;;;22.60;59.50;;;;;;5074842;28;20174;-67
2023/09/29 00:49:29;;;;;;;4.30;3.50;;;22.70;59.60;;;;;;5075283;28;20190;-66
2023/09/29 00:52:00;;;;;;;3.47;3.17;;;22.60;59.50;;;;;;5075180;28;20443;-65
2023/09/29 00:54:30;;;;;;;5.67;4.37;;;22.60;59.50;;;;;;5074730;28;20428;-67
2023/09/29 00:56:58;;;;;;;4.97;3.60;;;22.70;59.60;;;;;;5075068;28;20420;-67
2023/09/29 00:59:24;;;;;;;5.10;3.70;;;22.70;59.60;;;;;;5074880;28;20456;-67
2023/09/29 01:01:50;;;;;;;5.50;4.30;;;22.60;59.50;;;;;;5074505;28;20420;-67
2023/09/29 01:04:16;;;;;;;4.80;4.30;;;22.60;60.10;;;;;;5074449;28;20448;-66
2023/09/29 01:06:41;;;;;;;6.27;4.60;;;22.70;59.60;;;;;;5075636;28;20405;-67
2023/09/29 01:09:07;;;;;;;5.23;3.70;;;22.70;59.60;;;;;;5078200;28;20170;-66
2023/09/29 01:11:43;;;;;;;5.87;3.50;;;22.70;59.60;;;;;;5078721;28;20543;-67
2023/09/29 01:14:11;;;;;;;4.50;3.67;;;22.70;59.60;;;;;;5078351;28;20455;-67
2023/09/29 01:16:38;;;;;;;5.57;3.63;;;22.70;59.50;;;;;;5078727;28;20412;-66
2023/09/29 01:19:16;;;;;;;4.43;3.90;;;22.70;59.60;;;;;;5077742;28;21047;-66
2023/09/29 01:21:44;;;;;;;4.73;4.23;;;22.70;59.50;;;;;;5077538;28;20416;-67
2023/09/29 01:24:10;;;;;;;4.90;4.03;;;22.70;59.50;;;;;;5076809;28;20882;-67
2023/09/29 01:26:36;;;;;;;5.57;3.80;;;22.70;59.50;;;;;;5079372;28;20415;-66
2023/09/29 01:29:03;;;;;;;5.37;3.90;;;22.70;59.50;;;;;;5098627;28;20178;-66
2023/09/29 01:31:29;;;;;;;5.93;3.80;;;22.70;59.50;;;;;;5096317;28;20238;-67
2023/09/29 01:33:55;;;;;;;4.83;4.33;;;22.70;59.50;;;;;;5097951;28;20431;-66
2023/09/29 01:36:21;;;;;;;5.80;3.67;;;22.70;59.50;;;;;;5098412;28;20776;-67
2023/09/29 01:38:47;;;;;;;4.43;4.00;;;22.70;59.50;;;;;;5094926;28;20705;-66
2023/09/29 01:41:15;;;;;;;6.03;4.13;;;22.70;59.50;;;;;;5092675;28;20177;-65
2023/09/29 01:43:41;;;;;;;3.83;3.53;;;22.70;59.50;;;;;;5092335;28;20533;-67
2023/09/29 01:46:11;;;;;;;4.03;3.40;;;22.70;59.50;;;;;;5092660;28;20518;-66
2023/09/29 01:48:36;;;;;;;5.63;3.50;;;22.70;59.50;;;;;;5093684;28;20575;-66
2023/09/29 01:51:02;;;;;;;4.07;3.67;;;22.70;59.50;;;;;;5093530;28;20408;-66
2023/09/29 01:53:30;;;;;;;4.67;4.00;;;22.70;59.50;;;;;;5093554;28;20750;-66
2023/09/29 01:55:56;;;;;;;4.43;3.90;;;22.70;59.50;;;;;;5093617;28;20172;-66
2023/09/29 01:58:26;;;;;;;4.97;4.20;;;22.70;59.50;;;;;;5093311;28;20430;-65
2023/09/29 02:00:52;;;;;;;4.80;3.50;;;22.70;59.50;;;;;;5093402;28;20492;-64
2023/09/29 02:03:19;;;;;;;3.70;3.40;;;22.70;59.50;;;;;;5093342;28;20471;-66
2023/09/29 02:05:45;;;;;;;5.60;3.50;;;22.70;59.50;;;;;;5093213;28;20197;-66
2023/09/29 02:08:11;;;;;;;4.80;4.30;;;22.70;59.50;;;;;;5093335;28;20907;-66
2023/09/29 02:10:37;;;;;;;4.53;3.40;;;22.70;59.50;;;;;;5093639;28;20408;-66
2023/09/29 02:13:07;;;;;;;4.10;3.70;;;22.70;59.50;;;;;;5093190;28;20742;-67
2023/09/29 02:15:34;;;;;;;4.90;3.50;;;22.70;59.50;;;;;;5093704;28;20388;-66
2023/09/29 02:18:06;;;;;;;3.90;3.60;;;22.70;59.50;;;;;;5092701;28;20490;-67
2023/09/29 02:20:32;;;;;;;4.30;3.80;;;22.70;59.50;;;;;;5092739;28;20455;-66
2023/09/29 02:22:59;;;;;;;3.93;3.20;;;22.70;59.50;;;;;;5092015;28;20459;-66
2023/09/29 02:25:25;;;;;;;4.30;3.50;;;22.70;59.50;;;;;;5092958;28;20407;-66
2023/09/29 02:27:54;;;;;;;3.90;3.60;;;22.70;59.50;;;;;;5093353;28;20414;-66
2023/09/29 02:30:19;;;;;;;3.57;3.00;;;22.70;59.50;;;;;;5093286;28;20421;-66
2023/09/29 02:32:45;;;;;;;4.17;3.70;;;22.70;59.40;;;;;;5093113;28;20514;-66
2023/09/29 02:35:10;;;;;;;4.00;3.60;;;22.70;59.50;;;;;;5093130;28;20224;-67
2023/09/29 02:37:36;;;;;;;3.70;3.40;;;22.70;59.50;;;;;;5093049;28;20665;-65
2023/09/29 02:40:11;;;;;;;3.30;3.00;;;22.70;59.50;;;;;;5092806;28;20673;-66
2023/09/29 02:42:36;;;;;;;3.57;3.10;;;22.70;59.40;;;;;;5093096;28;20188;-65
2023/09/29 02:45:03;;;;;;;5.20;3.63;;;22.70;59.40;;;;;;5092805;28;20400;-66
2023/09/29 02:47:30;;;;;;;4.40;4.00;;;22.70;59.40;;;;;;5091577;28;20465;-68
2023/09/29 02:49:57;;;;;;;4.27;3.47;;;22.70;59.50;;;;;;5093249;28;20415;-66
2023/09/29 02:52:24;;;;;;;3.30;3.00;;;22.70;59.50;;;;;;5092688;28;20780;-66
2023/09/29 02:54:49;;;;;;;4.53;3.40;;;22.70;59.40;;;;;;5090240;28;20424;-65
2023/09/29 02:57:16;;;;;;;3.87;3.40;;;22.70;59.40;;;;;;5081915;28;21082;-67
2023/09/29 02:59:42;;;;;;;3.80;3.40;;;22.70;60.20;;;;;;5081778;28;20726;-67
2023/09/29 03:02:08;;;;;;;4.07;3.67;;;22.70;59.50;;;;;;5080867;28;20441;-67
2023/09/29 03:04:33;;;;;;;4.00;3.50;;;22.70;59.50;;;;;;5083619;28;20411;-66
2023/09/29 03:06:59;;;;;;;4.93;3.50;;;22.70;59.40;;;;;;5082533;28;20193;-66
2023/09/29 03:09:25;;;;;;;4.10;3.40;;;22.70;59.40;;;;;;5082704;28;20181;-67
2023/09/29 03:11:51;;;;;;;3.60;3.30;;;22.70;59.50;;;;;;5083877;28;20422;-67
2023/09/29 03:14:17;;;;;;;4.37;3.50;;;22.70;59.40;;;;;;5080492;28;20519;-66
2023/09/29 03:16:43;;;;;;;4.40;3.13;;;22.70;59.50;;;;;;5082821;28;20178;-66
2023/09/29 03:19:09;;;;;;;3.50;3.20;;;22.70;59.40;;;;;;5082430;28;20236;-66
2023/09/29 03:21:34;;;;;;;4.77;3.63;;;22.70;59.40;;;;;;5084505;28;20412;-67
2023/09/29 03:24:02;;;;;;;3.70;3.40;;;22.70;59.40;;;;;;5082055;28;20256;-66
2023/09/29 03:26:31;;;;;;;4.40;2.93;;;22.70;59.40;;;;;;5073923;28;20170;-66
2023/09/29 03:28:57;;;;;;;4.57;3.30;;;22.70;59.40;;;;;;5073344;28;20408;-67
2023/09/29 03:31:22;;;;;;;4.50;3.40;;;22.70;59.40;;;;;;5073237;28;20465;-65
2023/09/29 03:33:49;;;;;;;4.43;3.53;;;22.70;59.40;;;;;;5073486;28;20432;-66
2023/09/29 03:36:14;;;;;;;4.27;3.87;;;22.70;59.40;;;;;;5073091;28;20703;-67
2023/09/29 03:38:41;;;;;;;3.40;3.10;;;22.70;59.40;;;;;;5073143;28;20455;-66
2023/09/29 03:41:09;;;;;;;4.33;3.93;;;22.70;59.40;;;;;;5073014;28;20173;-66
2023/09/29 03:43:34;;;;;;;4.07;3.10;;;22.70;59.40;;;;;;5086005;28;20565;-66
2023/09/29 03:46:00;;;;;;;3.83;3.40;;;22.70;59.40;;;;;;5093222;28;20524;-66
2023/09/29 03:48:26;;;;;;;4.20;3.80;;;22.70;59.40;;;;;;5092316;28;20715;-67
2023/09/29 03:50:52;;;;;;;4.40;4.00;;;22.70;59.40;;;;;;5092657;28;20196;-67
2023/09/29 03:53:18;;;;;;;4.73;4.33;;;22.70;59.40;;;;;;5092062;28;20196;-68
2023/09/29 03:55:47;;;;;;;4.43;3.30;;;22.70;59.40;;;;;;5092596;28;20494;-63
2023/09/29 03:58:16;;;;;;;5.10;3.50;;;22.70;59.40;;;;;;5093253;28;20161;-65
2023/09/29 04:00:42;;;;;;;3.67;3.33;;;22.70;59.40;;;;;;5093837;28;20422;-67
2023/09/29 04:03:07;;;;;;;3.23;2.93;;;22.70;59.40;;;;;;5093791;28;20447;-66
2023/09/29 04:05:33;;;;;;;4.53;3.57;;;22.70;59.40;;;;;;5093846;28;20609;-66
2023/09/29 04:07:59;;;;;;;4.07;3.17;;;22.70;59.40;;;;;;5092615;28;20600;-67
2023/09/29 04:10:26;;;;;;;2.93;2.73;;;22.70;59.40;;;;;;5093075;28;20577;-66
2023/09/29 04:12:51;;;;;;;4.30;3.00;;;22.70;59.40;;;;;;5093595;28;20181;-66
2023/09/29 04:15:18;;;;;;;3.40;3.10;;;22.70;59.40;;;;;;5093379;28;20446;-67
2023/09/29 04:17:44;;;;;;;3.10;2.70;;;22.70;59.40;;;;;;5091983;28;20209;-67
2023/09/29 04:20:11;;;;;;;3.93;3.50;;;22.70;59.50;;;;;;5092828;28;20906;-65
2023/09/29 04:22:36;;;;;;;3.97;3.23;;;22.70;59.40;;;;;;5093387;28;20199;-67
2023/09/29 04:25:02;;;;;;;3.23;2.93;;;22.70;59.40;;;;;;5093026;28;20809;-67
2023/09/29 04:27:29;;;;;;;3.30;3.00;;;22.70;59.40;;;;;;5093222;28;20173;-65
2023/09/29 04:29:55;;;;;;;3.73;3.20;;;22.70;59.40;;;;;;5093413;28;20833;-66
2023/09/29 04:32:20;;;;;;;4.30;3.23;;;22.70;59.40;;;;;;5093085;28;20412;-66
2023/09/29 04:34:46;;;;;;;3.10;2.80;;;22.70;59.40;;;;;;5093433;28;20181;-65
2023/09/29 04:37:12;;;;;;;3.83;2.90;;;22.70;59.40;;;;;;5094329;28;20173;-67
2023/09/29 04:39:37;;;;;;;5.20;3.53;;;22.70;59.40;;;;;;5095259;28;20701;-66
2023/09/29 04:42:07;;;;;;;3.50;3.20;;;22.70;59.40;;;;;;5095801;28;20650;-67
2023/09/29 04:44:32;;;;;;;3.70;3.30;;;22.70;59.40;;;;;;5099864;28;20186;-67
2023/09/29 04:46:58;;;;;;;3.27;2.97;;;22.70;59.40;;;;;;5099427;28;20779;-66
2023/09/29 04:49:24;;;;;;;2.70;2.50;;;22.70;59.40;;;;;;5099806;28;20260;-67
2023/09/29 04:51:50;;;;;;;3.40;3.00;;;22.70;59.40;;;;;;5098687;28;20448;-67
2023/09/29 04:54:15;;;;;;;3.93;3.10;;;22.70;59.40;;;;;;5099614;28;20744;-65
2023/09/29 04:56:41;;;;;;;4.00;3.60;;;22.70;59.40;;;;;;5099227;28;20195;-67
2023/09/29 04:59:06;;;;;;;3.43;3.13;;;22.70;59.40;;;;;;5099078;28;20709;-67
2023/09/29 05:01:32;;;;;;;4.13;3.00;;;22.70;59.40;;;;;;5098660;28;20258;-67
2023/09/29 05:03:58;;;;;;;3.30;3.00;;;22.70;59.40;;;;;;5099453;28;20201;-66
2023/09/29 05:06:23;;;;;;;6.00;2.90;;;22.70;59.40;;;;;;5099266;28;20173;-67
2023/09/29 05:08:49;;;;;;;3.90;3.43;;;22.70;59.40;;;;;;5099457;28;20256;-67
2023/09/29 05:11:22;;;;;;;3.00;2.70;;;22.70;59.40;;;;;;5099555;28;20174;-65
2023/09/29 05:13:49;;;;;;;4.03;3.20;;;22.70;59.30;;;;;;5099701;28;20193;-67
2023/09/29 05:16:14;;;;;;;3.60;3.30;;;22.70;59.40;;;;;;5098767;28;20416;-68
2023/09/29 05:18:40;;;;;;;3.67;3.30;;;22.70;59.30;;;;;;5100309;28;20447;-65
2023/09/29 05:21:06;;;;;;;3.53;3.23;;;22.70;59.40;;;;;;5099174;28;20740;-65
2023/09/29 05:23:31;;;;;;;3.73;3.17;;;22.70;59.30;;;;;;5099255;28;20185;-67
2023/09/29 05:26:02;;;;;;;3.03;2.77;;;22.70;59.30;;;;;;5099644;28;20646;-67
2023/09/29 05:28:27;;;;;;;3.83;2.90;;;22.70;59.30;;;;;;5099885;28;20203;-65
2023/09/29 05:30:54;;;;;;;3.40;3.10;;;22.70;59.40;;;;;;5099923;28;20412;-66
2023/09/29 05:33:20;;;;;;;4.13;3.33;;;22.70;59.40;;;;;;5099374;28;20193;-68
2023/09/29 05:35:46;;;;;;;3.67;3.27;;;22.70;59.40;;;;;;5100042;28;20408;-67
2023/09/29 05:38:12;;;;;;;3.47;3.17;;;22.70;59.30;;;;;;5099868;28;20169;-66
2023/09/29 05:40:38;;;;;;;3.27;2.97;;;22.70;59.30;;;;;;5099889;28;20216;-65
2023/09/29 05:43:04;;;;;;;3.70;3.30;;;22.70;59.40;;;;;;5099487;28;20547;-65
2023/09/29 05:45:30;;;;;;;4.70;3.20;;;22.70;59.30;;;;;;5099777;28;20399;-66
2023/09/29 05:47:56;;;;;;;3.73;3.40;;;22.70;59.30;;;;;;5099836;28;20506;-67
2023/09/29 05:50:21;;;;;;;3.70;3.30;;;22.70;59.30;;;;;;5099981;28;20165;-66
2023/09/29 05:52:47;;;;;;;3.77;3.37;;;22.70;59.30;;;;;;5099153;28;20280;-66
2023/09/29 05:55:13;;;;;;;3.20;2.90;;;22.70;59.30;;;;;;5098962;28;20173;-65
2023/09/29 05:57:39;;;;;;;3.40;3.10;;;22.70;59.30;;;;;;5097083;28;20423;-67
2023/09/29 06:00:07;;;;;;;3.13;2.77;;;22.70;59.30;;;;;;5097682;28;20197;-66
2023/09/29 06:02:33;;;;;;;4.83;3.20;;;22.70;59.30;;;;;;5097894;28;20593;-67
2023/09/29 06:04:59;;;;;;;3.30;3.00;;;22.70;59.40;;;;;;5098066;28;20412;-65
2023/09/29 06:07:25;;;;;;;4.13;3.27;;;22.70;59.40;;;;;;5098789;28;20169;-65
2023/09/29 06:09:50;;;;;;;3.17;2.87;;;22.70;59.30;;;;;;5099409;28;20533;-66
2023/09/29 06:12:16;;;;;;;3.60;3.30;;;22.70;59.30;;;;;;5099116;28;20548;-65
2023/09/29 06:14:42;;;;;;;4.03;3.17;;;22.70;59.40;;;;;;5098662;28;20177;-67
2023/09/29 06:17:07;;;;;;;3.53;3.10;;;22.70;59.30;;;;;;5098093;28;20182;-67
2023/09/29 06:19:33;;;;;;;3.67;3.27;;;22.70;59.30;;;;;;5098416;28;20678;-67
2023/09/29 06:22:00;;;;;;;3.40;3.10;;;22.70;59.40;;;;;;5098638;28;20583;-65
2023/09/29 06:24:25;;;;;;;3.40;3.00;;;22.70;59.40;;;;;;5098234;28;20197;-66
2023/09/29 06:26:51;;;;;;;3.40;3.10;;;22.70;59.30;;;;;;5098442;28;20419;-67
2023/09/29 06:29:16;;;;;;;3.87;3.10;;;22.70;59.40;;;;;;5098184;28;20189;-66
2023/09/29 06:31:42;;;;;;;5.10;3.40;;;22.70;59.40;;;;;;5098204;28;20174;-67
2023/09/29 06:34:08;;;;;;;3.23;2.93;;;22.70;59.40;;;;;;5096698;28;20239;-66
2023/09/29 06:36:33;;;;;;;3.50;3.20;;;22.70;59.40;;;;;;5095896;28;20169;-67
2023/09/29 06:38:59;;;;;;;3.90;3.37;;;22.70;59.40;;;;;;5098085;28;20280;-66
2023/09/29 06:41:24;;;;;;;3.37;2.80;;;22.70;59.40;;;;;;5097523;28;20184;-66
2023/09/29 06:43:52;;;;;;;3.33;3.03;;;22.70;59.40;;;;;;5097192;28;20697;-66
2023/09/29 06:46:18;;;;;;;3.43;3.13;;;22.70;59.40;;;;;;5096711;28;20165;-64
2023/09/29 06:48:44;;;;;;;3.50;3.20;;;22.70;59.40;;;;;;5095770;28;20420;-65
2023/09/29 06:51:10;;;;;;;4.03;3.63;;;22.70;59.40;;;;;;5096151;28;20173;-67
2023/09/29 06:53:35;;;;;;;3.43;2.90;;;22.70;59.40;;;;;;5095365;28;20440;-66
2023/09/29 06:56:01;;;;;;;3.33;2.87;;;22.70;59.40;;;;;;5096921;28;20257;-63
2023/09/29 06:58:27;;;;;;;3.50;3.20;;;22.70;59.40;;;;;;5095704;28;20170;-65
2023/09/29 07:00:53;;;;;;;3.70;3.37;;;22.70;59.40;;;;;;5096305;28;20229;-66
2023/09/29 07:03:19;;;;;;;4.60;3.40;;;22.70;59.40;;;;;;5096688;28;20193;-65
2023/09/29 07:05:46;;;;;;;3.03;2.83;;;22.70;59.40;;;;;;5095131;28;20442;-67
2023/09/29 07:08:13;;;;;;;3.07;2.83;;;22.70;59.40;;;;;;5095584;28;20179;-66
2023/09/29 07:10:40;;;;;;;5.10;3.37;;;22.70;59.40;;;;;;5096411;28;20868;-67
2023/09/29 07:13:05;;;;;;;3.50;3.10;;;22.70;59.40;;;;;;5094118;28;20488;-67
2023/09/29 07:15:31;;;;;;;3.80;3.50;;;22.70;59.40;;;;;;5096174;28;20980;-65
2023/09/29 07:17:56;;;;;;;4.33;2.67;;;22.70;59.40;;;;;;5094264;28;20608;-65
2023/09/29 07:20:22;;;;;;;4.70;3.73;;;22.70;59.40;;;;;;5096586;28;20212;-65
2023/09/29 07:22:50;;;;;;;3.73;3.40;;;22.70;59.40;;;;;;5095206;28;20189;-65
2023/09/29 07:25:15;;;;;;;4.10;3.70;;;22.70;59.40;;;;;;5097456;28;20223;-65
2023/09/29 07:27:44;;;;;;;3.57;3.27;;;22.70;59.40;;;;;;5097052;28;20916;-68
2023/09/29 07:30:10;;;;;;;4.27;3.87;;;22.70;59.40;;;;;;5095689;28;20178;-66
2023/09/29 07:32:43;;;;;;;6.87;4.37;;;22.70;59.40;;;;;;5095151;28;20513;-65
2023/09/29 07:35:09;;;;;;;6.20;3.83;;;22.70;59.40;;;;;;5096285;28;20232;-65
2023/09/29 07:37:35;;;;;;;4.87;4.30;;;22.70;59.40;;;;;;5097365;28;20447;-66
2023/09/29 07:40:00;;;;;;;4.87;4.37;;;22.70;59.40;;;;;;5097458;28;20218;-66
2023/09/29 07:42:26;;;;;;;7.17;4.60;;;22.70;59.40;;;;;;5097467;28;20166;-65
2023/09/29 07:44:52;;;;;;;6.20;4.30;;;22.70;59.40;;;;;;5096219;28;20246;-63
2023/09/29 07:47:17;;;;;;;4.30;3.90;;;22.70;59.40;;;;;;5095919;28;20178;-67
2023/09/29 07:49:43;;;;;;;5.47;4.77;;;22.70;59.40;;;;;;5096804;28;20417;-65
2023/09/29 07:52:09;;;;;;;5.43;4.30;;;22.70;59.30;;;;;;5095210;28;20258;-65
2023/09/29 07:54:34;;;;;;;6.40;4.40;;;22.70;59.30;;;;;;5094833;28;20235;-66
2023/09/29 07:57:01;;;;;;;4.93;4.10;;;22.70;59.30;;;;;;5096077;28;20166;-65
2023/09/29 07:59:26;;;;;;;4.50;4.10;;;22.80;59.40;;;;;;5094277;28;20208;-65
2023/09/29 08:01:52;;;;;;;7.20;4.40;;;22.80;59.40;;;;;;5095961;28;20407;-66
2023/09/29 08:04:18;;;;;;;6.03;5.43;;;22.80;59.40;;;;;;5094119;28;20189;-65
2023/09/29 08:06:44;;;;;;;5.30;4.70;;;22.80;59.40;;;;;;5096774;28;20174;-67
2023/09/29 08:09:12;;;;;;;5.10;4.10;;;22.80;59.40;;;;;;5096892;28;20219;-66
2023/09/29 08:11:39;;;;;;;4.70;4.30;;;22.70;59.30;;;;;;5096890;28;20464;-67
2023/09/29 08:14:05;;;;;;;6.60;4.80;;;22.70;59.40;;;;;;5096936;28;20431;-67
2023/09/29 08:16:31;;;;;;;5.50;5.00;;;22.80;59.40;;;;;;5097901;28;20415;-66
2023/09/29 08:18:56;;;;;;;5.43;4.93;;;22.80;59.40;;;;;;5101141;28;20205;-67
2023/09/29 08:21:22;;;;;;;6.57;4.23;;;22.80;59.40;;;;;;5100400;28;20586;-65
2023/09/29 08:23:47;;;;;;;5.53;4.50;;;22.80;59.40;;;;;;5100274;28;20269;-65
2023/09/29 08:26:13;;;;;;;5.33;4.73;;;22.70;59.30;;;;;;5099504;28;20719;-66
2023/09/29 08:28:40;;;;;;;13.60;6.50;;;22.80;59.40;;;;;;5100467;28;20702;-68
2023/09/29 08:31:15;;;;;;;5.27;4.73;;;22.80;59.40;;;;;;5100819;28;20261;-66
2023/09/29 08:33:41;;;;;;;5.10;4.60;;;22.80;59.40;;;;;;5100130;28;20427;-65
2023/09/29 08:36:07;;;;;;;4.70;4.30;;;22.80;59.40;;;;;;5100537;28;20903;-66
2023/09/29 08:38:33;;;;;;;5.70;4.90;;;22.80;59.40;;;;;;5100079;28;20411;-66
2023/09/29 08:41:02;;;;;;;6.00;5.13;;;22.80;59.40;;;;;;5099614;28;20170;-63
2023/09/29 08:43:30;;;;;;;4.83;4.10;;;22.80;59.40;;;;;;5100314;28;20193;-64
2023/09/29 08:45:59;;;;;;;6.87;4.77;;;22.80;59.40;;;;;;5100252;28;20411;-64
2023/09/29 08:48:29;;;;;;;7.17;5.00;;;22.80;59.40;;;;;;5100162;28;20798;-66
2023/09/29 08:51:01;;;;;;;7.00;5.63;;;22.80;59.40;;;;;;5099926;28;20980;-65
2023/09/29 08:53:28;;;;;;;6.17;5.57;;;22.80;59.40;;;;;;5099605;28;20520;-66
2023/09/29 08:55:55;;;;;;;7.93;5.53;;;22.80;59.40;;;;;;5099560;28;20502;-66
2023/09/29 08:58:21;;;;;;;5.90;5.03;;;22.80;59.40;;;;;;5099669;28;20419;-64
2023/09/29 09:00:50;;;;;;;6.70;5.20;;;22.80;59.40;;;;;;5098940;28;20434;-66
2023/09/29 09:03:17;;;;;;;5.33;4.80;;;22.80;59.40;;;;;;5098851;28;20416;-66
2023/09/29 09:05:44;;;;;;;7.23;5.10;;;22.80;59.40;;;;;;5099699;28;20979;-66
2023/09/29 09:08:11;;;;;;;6.20;5.13;;;22.80;59.40;;;;;;5098472;28;20396;-66
2023/09/29 09:10:37;;;;;;;5.20;4.73;;;22.80;60.00;;;;;;5098662;28;20420;-66
2023/09/29 09:13:05;;;;;;;5.37;4.87;;;22.80;59.40;;;;;;5097849;28;20423;-64
2023/09/29 09:15:31;;;;;;;5.23;4.73;;;22.80;59.40;;;;;;5098490;28;20414;-63
2023/09/29 09:17:57;;;;;;;6.50;4.83;;;22.80;59.40;;;;;;5096870;28;20507;-65
2023/09/29 09:20:23;;;;;;;5.83;4.77;;;22.80;59.40;;;;;;5097979;28;20517;-65
2023/09/29 09:23:00;;;;;;;5.70;4.53;;;22.80;59.40;;;;;;5097521;28;21095;-65
2023/09/29 09:25:42;;;;;;;6.17;5.30;;;22.80;59.40;;;;;;5096766;28;20496;-66
2023/09/29 09:28:16;;;;;;;6.20;4.90;;;22.80;59.40;;;;;;5095889;28;20494;-64
2023/09/29 09:30:42;;;;;;;6.40;4.97;;;22.80;59.40;;;;;;5096099;28;20407;-63
2023/09/29 09:33:16;;;;;;;5.87;5.33;;;22.80;59.40;;;;;;5096784;28;20427;-65
2023/09/29 09:35:42;;;;;;;7.37;5.27;;;22.80;59.40;;;;;;5096699;28;20218;-65
2023/09/29 09:38:08;;;;;;;4.70;4.33;;;22.80;59.40;;;;;;5096686;28;20478;-66
2023/09/29 09:40:34;;;;;;;7.00;5.80;;;22.80;59.40;;;;;;5097423;28;20194;-66
2023/09/29 09:43:04;;;;;;;5.03;4.40;;;22.80;59.40;;;;;;5097081;28;20231;-65
2023/09/29 09:45:41;;;;;;;6.60;5.00;;;22.80;59.40;;;;;;5097333;28;20430;-65
2023/09/29 09:48:08;;;;;;;4.43;3.97;;;22.90;59.50;;;;;;5097017;28;20403;-63
2023/09/29 09:50:36;;;;;;;6.57;4.87;;;22.80;59.40;;;;;;5096345;28;20404;-66
2023/09/29 09:53:04;;;;;;;6.10;4.97;;;22.80;59.40;;;;;;5095432;28;20427;-66
2023/09/29 09:55:40;;;;;;;5.70;5.20;;;22.80;59.40;;;;;;5096070;28;20415;-64
2023/09/29 09:58:10;;;;;;;6.23;4.80;;;22.80;59.40;;;;;;5097003;28;20399;-65
2023/09/29 10:00:40;;;;;;;5.47;4.97;;;22.80;59.40;;;;;;5097263;28;20935;-65
2023/09/29 10:03:14;;;;;;;5.50;4.87;;;22.80;59.40;;;;;;5095707;28;20428;-65
2023/09/29 10:05:41;;;;;;;6.27;5.10;;;22.80;59.40;;;;;;5096834;28;20380;-63
2023/09/29 10:08:10;;;;;;;5.67;4.93;;;22.80;59.40;;;;;;5096608;28;20403;-65
2023/09/29 10:10:41;;;;;;;5.40;4.90;;;22.80;59.40;;;;;;5097151;28;20916;-66
2023/09/29 10:13:11;;;;;;;5.20;4.80;;;22.80;59.40;;;;;;5096441;28;20467;-66
2023/09/29 10:15:39;;;;;;;4.33;3.93;;;22.80;59.40;;;;;;5095830;28;20422;-66
2023/09/29 10:18:21;;;;;;;4.90;4.40;;;22.80;59.40;;;;;;5096462;28;20422;-64
2023/09/29 10:20:55;;;;;;;6.00;4.20;;;22.90;59.50;;;;;;5051806;28;1284477;-66
2023/09/29 10:23:24;;;;;;;6.40;4.80;;;22.90;59.50;;;;;;5097765;28;20290;-66
2023/09/29 10:26:04;;;;;;;7.20;5.60;;;22.80;59.40;;;;;;5097263;28;20419;-66
2023/09/29 10:28:39;;;;;;;4.90;4.40;;;22.90;59.50;;;;;;5097466;28;20404;-65
2023/09/29 10:31:17;;;;;;;5.60;4.50;;;22.80;59.40;;;;;;5096685;28;20415;-66
2023/09/29 10:33:55;;;;;;;4.83;4.13;;;22.90;59.50;;;;;;5095597;28;20454;-64
2023/09/29 10:36:25;;;;;;;7.50;5.40;;;22.90;59.50;;;;;;5097279;28;20498;-64
2023/09/29 10:38:57;;;;;;;5.70;4.20;;;22.90;59.50;;;;;;5094149;28;20447;-65
2023/09/29 10:41:23;;;;;;;4.67;4.07;;;22.90;59.50;;;;;;5094490;28;20422;-62
2023/09/29 10:44:00;;;;;;;5.40;4.33;;;22.90;59.50;;;;;;5096788;28;20510;-66
2023/09/29 10:46:26;;;;;;;6.00;4.50;;;22.90;59.50;;;;;;5095055;28;20419;-64
2023/09/29 10:48:58;;;;;;;5.80;4.50;;;22.90;59.50;;;;;;5096930;28;20411;-65
2023/09/29 10:51:33;;;;;;;6.10;5.10;;;22.90;59.50;;;;;;5094155;28;20596;-66
2023/09/29 10:54:11;;;;;;;5.10;4.47;;;22.90;59.50;;;;;;5095392;28;20439;-64
2023/09/29 10:56:39;;;;;;;5.20;4.00;;;22.90;59.50;;;;;;5091909;28;20424;-65
2023/09/29 10:59:07;;;;;;;6.83;4.70;;;22.90;59.40;;;;;;5093667;28;20463;-65
2023/09/29 11:02:29;;;;;;;7.27;4.50;;;22.90;59.40;;;;;;5095219;28;20441;-69
2023/09/29 11:05:26;;;;;;;4.40;4.00;;;22.90;59.50;;;;;;5055067;28;20831;-69
2023/09/29 11:08:19;;;;;;;4.60;4.20;;;22.90;59.50;;;;;;5095944;28;20427;-68
2023/09/29 11:11:14;;;;;;;4.33;3.87;;;22.90;59.50;;;;;;5096053;28;20447;-66
2023/09/29 11:13:40;;;;;;;5.50;4.80;;;22.90;59.50;;;;;;5086951;28;20454;-64
2023/09/29 11:16:31;;;;;;;5.70;4.80;;;22.90;59.50;;;;;;5095873;28;20408;-66
2023/09/29 11:19:20;;;;;;;5.73;5.13;;;22.90;59.50;;;;;;5095057;28;20550;-68
2023/09/29 11:21:46;;;;;;;5.57;5.07;;;22.90;59.50;;;;;;5077328;28;20445;-64
2023/09/29 11:24:13;;;;;;;4.90;4.40;;;22.90;59.60;;;;;;5094125;28;20435;-67
2023/09/29 11:26:46;;;;;;;5.70;5.10;;;22.90;59.50;;;;;;5095604;28;20668;-65
2023/09/29 11:29:27;;;;;;;7.20;4.90;;;22.90;59.50;;;;;;5095872;28;20462;-66
2023/09/29 11:31:53;;;;;;;6.93;5.17;;;22.90;59.50;;;;;;5096455;28;20420;-63
2023/09/29 11:34:19;;;;;;;7.20;5.30;;;22.90;59.40;;;;;;5096086;28;20440;-66
2023/09/29 11:36:45;;;;;;;5.93;5.13;;;22.90;60.00;;;;;;5096119;28;20650;-65
2023/09/29 11:39:16;;;;;;;6.43;5.73;;;22.90;59.40;;;;;;5092616;28;20711;-65
2023/09/29 11:41:42;;;;;;;8.10;6.43;;;22.90;59.40;;;;;;5092485;28;20158;-65
2023/09/29 11:44:08;;;;;;;9.23;6.53;;;22.90;59.40;;;;;;5091341;28;20443;-65
2023/09/29 11:46:35;;;;;;;8.70;5.90;;;22.90;59.40;;;;;;5093047;28;20182;-66
2023/09/29 11:49:01;;;;;;;8.23;6.07;;;22.90;59.40;;;;;;5092922;28;20287;-62
2023/09/29 11:51:27;;;;;;;22.20;7.47;;;22.90;60.00;;;;;;5093147;28;20491;-66
2023/09/29 11:53:52;;;;;;;10.50;7.07;;;22.90;59.40;;;;;;5091543;28;20233;-65
2023/09/29 11:56:18;;;;;;;11.80;7.63;;;22.90;59.40;;;;;;5093267;28;20174;-63
2023/09/29 11:58:45;;;;;;;10.73;7.40;;;22.90;59.50;;;;;;5093126;28;20174;-65
2023/09/29 12:01:10;;;;;;;13.10;7.50;;;23.00;59.50;;;;;;5093516;28;20265;-64
2023/09/29 12:03:36;;;;;;;16.10;7.87;;;22.90;59.40;;;;;;5093313;28;20881;-65
2023/09/29 12:06:02;;;;;;;11.90;7.47;;;22.90;59.40;;;;;;5093434;28;20173;-63
2023/09/29 12:08:29;;;;;;;13.40;7.77;;;23.00;59.50;;;;;;5093024;28;20210;-63
2023/09/29 12:10:55;;;;;;;10.00;7.37;;;23.00;59.50;;;;;;5092539;28;20434;-67
2023/09/29 12:13:24;;;;;;;15.13;9.57;;;23.00;59.50;;;;;;5093076;28;20495;-69
2023/09/29 12:15:49;;;;;;;14.80;10.23;;;23.00;59.50;;;;;;5093259;28;20408;-64
2023/09/29 12:18:20;;;;;;;11.37;7.97;;;23.00;59.50;;;;;;5092956;28;20406;-66
2023/09/29 12:20:53;;;;;;;11.10;8.00;;;23.00;59.50;;;;;;5092323;28;20288;-65
2023/09/29 12:23:24;;;;;;;13.47;7.43;;;23.00;59.60;;;;;;5104357;28;20414;-65
2023/09/29 12:25:50;;;;;;;14.23;7.67;;;23.00;59.60;;;;;;5096861;28;20415;-65
2023/09/29 12:28:22;;;;;;;14.10;8.47;;;23.00;59.60;;;;;;5108384;28;20408;-66
2023/09/29 12:30:47;;;;;;;13.33;7.77;;;23.00;59.60;;;;;;5103870;28;20211;-65
2023/09/29 12:33:13;;;;;;;12.33;8.23;;;23.00;59.60;;;;;;5100545;28;20436;-66
2023/09/29 12:35:38;;;;;;;16.40;8.33;;;23.00;59.60;;;;;;5110193;28;20233;-65
2023/09/29 12:38:05;;;;;;;11.03;7.40;;;23.00;59.60;;;;;;5099195;28;20236;-66
2023/09/29 12:40:32;;;;;;;12.40;7.60;;;23.00;59.60;;;;;;5095190;28;20222;-65
2023/09/29 12:42:59;;;;;;;12.13;7.13;;;23.00;59.60;;;;;;5092867;28;20489;-65
2023/09/29 12:45:25;;;;;;;11.20;7.73;;;23.00;59.60;;;;;;5093190;28;20491;-65
2023/09/29 12:47:52;;;;;;;12.17;7.53;;;23.00;59.60;;;;;;5094004;28;20443;-65